sensor_id;sensor_type;location;lat;lon;timestamp;P1;durP1;ratioP1;P2;durP2;ratioP2
40837;SDS011;29632;49.168;9.848;2022-08-21T00:00:19;2.00;;;1.20;;
40837;SDS011;29632;49.168;9.848;2022-08-21T00:02:54;2.00;;;1.07;;
40837;SDS011;29632;49.168;9.848;2022-08-21T00:05:27;1.63;;;1.00;;
40837;SDS011;29632;49.168;9.848;2022-08-21T00:07:54;3.93;;;1.40;;
40837;SDS011;29632;49.168;9.848;2022-08-21T00:10:20;4.40;;;1.10;;
40837;SDS011;29632;49.168;9.848;2022-08-21T00:12:47;2.70;;;1.20;;
40837;SDS011;29632;49.168;9.848;2022-08-21T00:15:15;2.60;;;1.20;;
40837;SDS011;29632;49.168;9.848;2022-08-21T00:17:46;3.13;;;1.73;;
40837;SDS011;29632;49.168;9.848;2022-08-21T00:20:15;1.50;;;1.20;;
40837;SDS011;29632;49.168;9.848;2022-08-21T00:22:42;2.43;;;1.60;;
40837;SDS011;29632;49.168;9.848;2022-08-21T00:25:09;1.83;;;1.33;;
40837;SDS011;29632;49.168;9.848;2022-08-21T00:27:36;2.57;;;1.13;;
40837;SDS011;29632;49.168;9.848;2022-08-21T00:30:03;2.33;;;1.67;;
40837;SDS011;29632;49.168;9.848;2022-08-21T00:32:31;1.63;;;1.17;;
40837;SDS011;29632;49.168;9.848;2022-08-21T00:34:58;3.83;;;1.57;;
40837;SDS011;29632;49.168;9.848;2022-08-21T00:37:24;4.53;;;1.90;;
40837;SDS011;29632;49.168;9.848;2022-08-21T00:39:50;2.40;;;1.53;;
40837;SDS011;29632;49.168;9.848;2022-08-21T00:42:16;3.90;;;1.97;;
40837;SDS011;29632;49.168;9.848;2022-08-21T00:44:43;2.83;;;1.77;;
40837;SDS011;29632;49.168;9.848;2022-08-21T00:47:11;4.77;;;2.43;;
40837;SDS011;29632;49.168;9.848;2022-08-21T00:49:38;4.07;;;2.80;;
40837;SDS011;29632;49.168;9.848;2022-08-21T00:52:05;3.33;;;2.20;;
40837;SDS011;29632;49.168;9.848;2022-08-21T00:54:36;4.50;;;2.43;;
40837;SDS011;29632;49.168;9.848;2022-08-21T00:57:05;3.50;;;2.40;;
40837;SDS011;29632;49.168;9.848;2022-08-21T00:59:46;4.20;;;1.87;;
40837;SDS011;29632;49.168;9.848;2022-08-21T01:02:16;2.10;;;1.47;;
40837;SDS011;29632;49.168;9.848;2022-08-21T01:04:44;3.00;;;2.07;;
40837;SDS011;29632;49.168;9.848;2022-08-21T01:07:11;1.90;;;1.47;;
40837;SDS011;29632;49.168;9.848;2022-08-21T01:09:37;2.47;;;1.90;;
40837;SDS011;29632;49.168;9.848;2022-08-21T01:12:04;2.47;;;1.43;;
40837;SDS011;29632;49.168;9.848;2022-08-21T01:14:30;2.70;;;1.50;;
40837;SDS011;29632;49.168;9.848;2022-08-21T01:16:57;3.67;;;1.47;;
40837;SDS011;29632;49.168;9.848;2022-08-21T01:19:25;2.13;;;1.50;;
40837;SDS011;29632;49.168;9.848;2022-08-21T01:21:52;3.20;;;1.50;;
40837;SDS011;29632;49.168;9.848;2022-08-21T01:24:19;3.13;;;1.60;;
40837;SDS011;29632;49.168;9.848;2022-08-21T01:26:46;3.07;;;1.97;;
40837;SDS011;29632;49.168;9.848;2022-08-21T01:32:07;3.07;;;1.60;;
40837;SDS011;29632;49.168;9.848;2022-08-21T01:34:40;2.83;;;1.77;;
40837;SDS011;29632;49.168;9.848;2022-08-21T01:37:09;2.90;;;1.38;;
40837;SDS011;29632;49.168;9.848;2022-08-21T01:39:35;2.60;;;1.93;;
40837;SDS011;29632;49.168;9.848;2022-08-21T01:42:02;2.07;;;1.57;;
40837;SDS011;29632;49.168;9.848;2022-08-21T01:44:29;1.90;;;1.57;;
40837;SDS011;29632;49.168;9.848;2022-08-21T01:46:56;4.60;;;1.70;;
40837;SDS011;29632;49.168;9.848;2022-08-21T01:49:25;1.88;;;1.58;;
40837;SDS011;29632;49.168;9.848;2022-08-21T01:51:51;2.13;;;1.93;;
40837;SDS011;29632;49.168;9.848;2022-08-21T01:54:17;4.10;;;1.60;;
40837;SDS011;29632;49.168;9.848;2022-08-21T01:56:45;3.67;;;1.77;;
40837;SDS011;29632;49.168;9.848;2022-08-21T01:59:15;2.70;;;1.83;;
40837;SDS011;29632;49.168;9.848;2022-08-21T02:01:41;3.40;;;2.00;;
40837;SDS011;29632;49.168;9.848;2022-08-21T02:04:07;2.13;;;1.50;;
40837;SDS011;29632;49.168;9.848;2022-08-21T02:06:35;4.07;;;2.07;;
40837;SDS011;29632;49.168;9.848;2022-08-21T02:09:06;3.27;;;1.87;;
40837;SDS011;29632;49.168;9.848;2022-08-21T02:11:34;3.43;;;2.17;;
40837;SDS011;29632;49.168;9.848;2022-08-21T02:14:01;2.83;;;2.00;;
40837;SDS011;29632;49.168;9.848;2022-08-21T02:16:27;2.70;;;2.10;;
40837;SDS011;29632;49.168;9.848;2022-08-21T02:18:53;3.47;;;1.77;;
40837;SDS011;29632;49.168;9.848;2022-08-21T02:21:19;2.97;;;2.07;;
40837;SDS011;29632;49.168;9.848;2022-08-21T02:23:44;4.40;;;2.60;;
40837;SDS011;29632;49.168;9.848;2022-08-21T02:26:10;6.50;;;3.23;;
40837;SDS011;29632;49.168;9.848;2022-08-21T02:28:37;3.00;;;2.07;;
40837;SDS011;29632;49.168;9.848;2022-08-21T02:31:04;2.17;;;1.50;;
40837;SDS011;29632;49.168;9.848;2022-08-21T02:33:31;4.87;;;1.80;;
40837;SDS011;29632;49.168;9.848;2022-08-21T02:35:58;4.80;;;2.03;;
40837;SDS011;29632;49.168;9.848;2022-08-21T02:38:26;3.40;;;1.60;;
40837;SDS011;29632;49.168;9.848;2022-08-21T02:40:57;2.57;;;1.83;;
40837;SDS011;29632;49.168;9.848;2022-08-21T02:43:24;3.63;;;2.20;;
40837;SDS011;29632;49.168;9.848;2022-08-21T02:45:52;4.73;;;2.80;;
40837;SDS011;29632;49.168;9.848;2022-08-21T02:48:22;3.47;;;2.20;;
40837;SDS011;29632;49.168;9.848;2022-08-21T02:50:56;3.37;;;1.97;;
40837;SDS011;29632;49.168;9.848;2022-08-21T02:53:28;3.63;;;1.77;;
40837;SDS011;29632;49.168;9.848;2022-08-21T02:55:56;3.87;;;2.10;;
40837;SDS011;29632;49.168;9.848;2022-08-21T02:58:26;4.17;;;2.10;;
40837;SDS011;29632;49.168;9.848;2022-08-21T03:00:56;3.17;;;2.27;;
40837;SDS011;29632;49.168;9.848;2022-08-21T03:03:23;3.43;;;2.10;;
40837;SDS011;29632;49.168;9.848;2022-08-21T03:05:51;3.50;;;2.17;;
40837;SDS011;29632;49.168;9.848;2022-08-21T03:08:18;1.93;;;1.70;;
40837;SDS011;29632;49.168;9.848;2022-08-21T03:10:45;4.10;;;2.63;;
40837;SDS011;29632;49.168;9.848;2022-08-21T03:13:15;3.57;;;1.90;;
40837;SDS011;29632;49.168;9.848;2022-08-21T03:15:43;2.73;;;1.90;;
40837;SDS011;29632;49.168;9.848;2022-08-21T03:18:10;3.10;;;1.73;;
40837;SDS011;29632;49.168;9.848;2022-08-21T03:20:37;2.93;;;2.00;;
40837;SDS011;29632;49.168;9.848;2022-08-21T03:23:05;3.27;;;2.07;;
40837;SDS011;29632;49.168;9.848;2022-08-21T03:25:33;3.37;;;2.40;;
40837;SDS011;29632;49.168;9.848;2022-08-21T03:28:00;3.03;;;2.07;;
40837;SDS011;29632;49.168;9.848;2022-08-21T03:30:31;3.33;;;2.27;;
40837;SDS011;29632;49.168;9.848;2022-08-21T03:32:57;9.40;;;2.10;;
40837;SDS011;29632;49.168;9.848;2022-08-21T03:35:25;3.87;;;2.23;;
40837;SDS011;29632;49.168;9.848;2022-08-21T03:37:52;5.77;;;2.77;;
40837;SDS011;29632;49.168;9.848;2022-08-21T03:40:19;3.40;;;2.20;;
40837;SDS011;29632;49.168;9.848;2022-08-21T03:42:49;5.75;;;2.28;;
40837;SDS011;29632;49.168;9.848;2022-08-21T03:45:16;2.73;;;2.00;;
40837;SDS011;29632;49.168;9.848;2022-08-21T03:47:50;2.87;;;1.90;;
40837;SDS011;29632;49.168;9.848;2022-08-21T03:50:26;4.70;;;1.93;;
40837;SDS011;29632;49.168;9.848;2022-08-21T03:52:57;3.03;;;2.00;;
40837;SDS011;29632;49.168;9.848;2022-08-21T03:55:24;2.87;;;2.13;;
40837;SDS011;29632;49.168;9.848;2022-08-21T03:57:51;3.30;;;2.23;;
40837;SDS011;29632;49.168;9.848;2022-08-21T04:00:17;2.10;;;1.90;;
40837;SDS011;29632;49.168;9.848;2022-08-21T04:02:43;3.57;;;2.37;;
40837;SDS011;29632;49.168;9.848;2022-08-21T04:05:10;3.73;;;2.10;;
40837;SDS011;29632;49.168;9.848;2022-08-21T04:07:37;3.50;;;2.00;;
40837;SDS011;29632;49.168;9.848;2022-08-21T04:10:04;6.17;;;2.43;;
40837;SDS011;29632;49.168;9.848;2022-08-21T04:12:32;4.87;;;2.17;;
40837;SDS011;29632;49.168;9.848;2022-08-21T04:14:58;2.63;;;2.00;;
40837;SDS011;29632;49.168;9.848;2022-08-21T04:17:24;3.43;;;2.07;;
40837;SDS011;29632;49.168;9.848;2022-08-21T04:19:49;4.60;;;1.90;;
40837;SDS011;29632;49.168;9.848;2022-08-21T04:22:15;3.27;;;2.30;;
40837;SDS011;29632;49.168;9.848;2022-08-21T04:24:41;3.17;;;1.90;;
40837;SDS011;29632;49.168;9.848;2022-08-21T04:27:07;3.57;;;1.90;;
40837;SDS011;29632;49.168;9.848;2022-08-21T04:29:33;2.93;;;2.33;;
40837;SDS011;29632;49.168;9.848;2022-08-21T04:31:59;3.50;;;2.50;;
40837;SDS011;29632;49.168;9.848;2022-08-21T04:34:24;3.20;;;1.97;;
40837;SDS011;29632;49.168;9.848;2022-08-21T04:36:50;2.83;;;1.97;;
40837;SDS011;29632;49.168;9.848;2022-08-21T04:39:16;4.93;;;2.07;;
40837;SDS011;29632;49.168;9.848;2022-08-21T04:41:42;2.77;;;1.93;;
40837;SDS011;29632;49.168;9.848;2022-08-21T04:44:07;4.00;;;2.30;;
40837;SDS011;29632;49.168;9.848;2022-08-21T04:46:33;3.53;;;2.30;;
40837;SDS011;29632;49.168;9.848;2022-08-21T04:48:59;2.87;;;2.20;;
40837;SDS011;29632;49.168;9.848;2022-08-21T04:51:27;3.03;;;2.07;;
40837;SDS011;29632;49.168;9.848;2022-08-21T04:56:42;3.07;;;1.53;;
40837;SDS011;29632;49.168;9.848;2022-08-21T04:59:28;3.80;;;2.00;;
40837;SDS011;29632;49.168;9.848;2022-08-21T05:02:05;2.27;;;1.73;;
40837;SDS011;29632;49.168;9.848;2022-08-21T05:04:34;2.57;;;1.67;;
40837;SDS011;29632;49.168;9.848;2022-08-21T05:07:22;3.63;;;2.30;;
40837;SDS011;29632;49.168;9.848;2022-08-21T05:12:18;3.97;;;2.20;;
40837;SDS011;29632;49.168;9.848;2022-08-21T05:14:45;3.93;;;2.27;;
40837;SDS011;29632;49.168;9.848;2022-08-21T05:17:12;3.83;;;2.40;;
40837;SDS011;29632;49.168;9.848;2022-08-21T05:19:38;4.57;;;2.23;;
40837;SDS011;29632;49.168;9.848;2022-08-21T05:22:04;4.77;;;2.47;;
40837;SDS011;29632;49.168;9.848;2022-08-21T05:24:30;3.73;;;2.53;;
40837;SDS011;29632;49.168;9.848;2022-08-21T05:26:56;3.43;;;2.30;;
40837;SDS011;29632;49.168;9.848;2022-08-21T05:29:22;5.07;;;2.83;;
40837;SDS011;29632;49.168;9.848;2022-08-21T05:31:48;4.60;;;2.67;;
40837;SDS011;29632;49.168;9.848;2022-08-21T05:34:14;3.70;;;2.57;;
40837;SDS011;29632;49.168;9.848;2022-08-21T05:36:44;3.30;;;2.40;;
40837;SDS011;29632;49.168;9.848;2022-08-21T05:39:10;4.13;;;2.53;;
40837;SDS011;29632;49.168;9.848;2022-08-21T05:41:36;4.23;;;2.27;;
40837;SDS011;29632;49.168;9.848;2022-08-21T05:44:02;5.90;;;2.90;;
40837;SDS011;29632;49.168;9.848;2022-08-21T05:46:28;5.53;;;3.07;;
40837;SDS011;29632;49.168;9.848;2022-08-21T05:48:54;4.10;;;2.80;;
40837;SDS011;29632;49.168;9.848;2022-08-21T05:51:20;3.63;;;3.07;;
40837;SDS011;29632;49.168;9.848;2022-08-21T05:53:45;5.87;;;3.43;;
40837;SDS011;29632;49.168;9.848;2022-08-21T05:56:12;4.50;;;2.90;;
40837;SDS011;29632;49.168;9.848;2022-08-21T05:58:39;5.97;;;3.00;;
40837;SDS011;29632;49.168;9.848;2022-08-21T06:01:05;4.90;;;3.17;;
40837;SDS011;29632;49.168;9.848;2022-08-21T06:03:32;6.20;;;3.20;;
40837;SDS011;29632;49.168;9.848;2022-08-21T06:06:04;4.57;;;3.07;;
40837;SDS011;29632;49.168;9.848;2022-08-21T06:08:30;5.43;;;3.00;;
40837;SDS011;29632;49.168;9.848;2022-08-21T06:10:57;6.87;;;3.83;;
40837;SDS011;29632;49.168;9.848;2022-08-21T06:13:24;5.13;;;3.33;;
40837;SDS011;29632;49.168;9.848;2022-08-21T06:16:00;4.20;;;3.50;;
40837;SDS011;29632;49.168;9.848;2022-08-21T06:18:32;5.97;;;4.13;;
40837;SDS011;29632;49.168;9.848;2022-08-21T06:20:59;4.97;;;3.47;;
40837;SDS011;29632;49.168;9.848;2022-08-21T06:23:25;4.83;;;3.10;;
40837;SDS011;29632;49.168;9.848;2022-08-21T06:25:51;5.57;;;3.43;;
40837;SDS011;29632;49.168;9.848;2022-08-21T06:28:18;5.53;;;3.43;;
40837;SDS011;29632;49.168;9.848;2022-08-21T06:30:43;6.67;;;3.70;;
40837;SDS011;29632;49.168;9.848;2022-08-21T06:33:09;4.90;;;3.17;;
40837;SDS011;29632;49.168;9.848;2022-08-21T06:35:35;5.80;;;3.10;;
40837;SDS011;29632;49.168;9.848;2022-08-21T06:38:02;4.83;;;3.03;;
40837;SDS011;29632;49.168;9.848;2022-08-21T06:40:28;6.27;;;4.40;;
40837;SDS011;29632;49.168;9.848;2022-08-21T06:42:57;5.13;;;3.70;;
40837;SDS011;29632;49.168;9.848;2022-08-21T06:45:23;7.80;;;3.73;;
40837;SDS011;29632;49.168;9.848;2022-08-21T06:47:49;7.13;;;3.73;;
40837;SDS011;29632;49.168;9.848;2022-08-21T06:50:15;6.03;;;3.40;;
40837;SDS011;29632;49.168;9.848;2022-08-21T06:52:41;5.73;;;3.60;;
40837;SDS011;29632;49.168;9.848;2022-08-21T06:55:07;4.40;;;2.80;;
40837;SDS011;29632;49.168;9.848;2022-08-21T06:57:34;6.80;;;3.77;;
40837;SDS011;29632;49.168;9.848;2022-08-21T07:00:01;5.10;;;3.03;;
40837;SDS011;29632;49.168;9.848;2022-08-21T07:02:29;5.47;;;4.00;;
40837;SDS011;29632;49.168;9.848;2022-08-21T07:04:55;5.53;;;3.63;;
40837;SDS011;29632;49.168;9.848;2022-08-21T07:07:21;5.90;;;3.30;;
40837;SDS011;29632;49.168;9.848;2022-08-21T07:09:47;6.43;;;3.80;;
40837;SDS011;29632;49.168;9.848;2022-08-21T07:12:12;5.53;;;3.40;;
40837;SDS011;29632;49.168;9.848;2022-08-21T07:14:38;6.23;;;3.73;;
40837;SDS011;29632;49.168;9.848;2022-08-21T07:17:04;5.53;;;3.90;;
40837;SDS011;29632;49.168;9.848;2022-08-21T07:19:29;5.17;;;3.50;;
40837;SDS011;29632;49.168;9.848;2022-08-21T07:21:58;7.70;;;4.00;;
40837;SDS011;29632;49.168;9.848;2022-08-21T07:24:26;5.73;;;3.40;;
40837;SDS011;29632;49.168;9.848;2022-08-21T07:26:53;6.80;;;3.90;;
40837;SDS011;29632;49.168;9.848;2022-08-21T07:29:18;4.97;;;3.50;;
40837;SDS011;29632;49.168;9.848;2022-08-21T07:31:44;6.57;;;3.60;;
40837;SDS011;29632;49.168;9.848;2022-08-21T07:34:10;7.23;;;3.90;;
40837;SDS011;29632;49.168;9.848;2022-08-21T07:36:38;7.47;;;4.33;;
40837;SDS011;29632;49.168;9.848;2022-08-21T07:39:04;7.43;;;4.57;;
40837;SDS011;29632;49.168;9.848;2022-08-21T07:41:30;10.57;;;4.53;;
40837;SDS011;29632;49.168;9.848;2022-08-21T07:43:57;7.70;;;4.47;;
40837;SDS011;29632;49.168;9.848;2022-08-21T07:46:24;6.07;;;4.43;;
40837;SDS011;29632;49.168;9.848;2022-08-21T07:48:50;6.63;;;3.80;;
40837;SDS011;29632;49.168;9.848;2022-08-21T07:51:18;8.23;;;5.07;;
40837;SDS011;29632;49.168;9.848;2022-08-21T07:53:48;7.37;;;4.03;;
40837;SDS011;29632;49.168;9.848;2022-08-21T07:56:15;6.85;;;4.50;;
40837;SDS011;29632;49.168;9.848;2022-08-21T07:58:42;9.63;;;4.83;;
40837;SDS011;29632;49.168;9.848;2022-08-21T08:01:08;7.30;;;5.07;;
40837;SDS011;29632;49.168;9.848;2022-08-21T08:03:33;6.33;;;3.83;;
40837;SDS011;29632;49.168;9.848;2022-08-21T08:05:59;5.27;;;3.70;;
40837;SDS011;29632;49.168;9.848;2022-08-21T08:08:25;6.43;;;4.37;;
40837;SDS011;29632;49.168;9.848;2022-08-21T08:10:52;5.80;;;4.23;;
40837;SDS011;29632;49.168;9.848;2022-08-21T08:13:21;6.10;;;4.20;;
40837;SDS011;29632;49.168;9.848;2022-08-21T08:15:46;6.77;;;4.70;;
40837;SDS011;29632;49.168;9.848;2022-08-21T08:18:13;7.87;;;4.63;;
40837;SDS011;29632;49.168;9.848;2022-08-21T08:20:39;5.83;;;3.97;;
40837;SDS011;29632;49.168;9.848;2022-08-21T08:23:06;10.00;;;4.63;;
40837;SDS011;29632;49.168;9.848;2022-08-21T08:25:34;6.07;;;4.40;;
40837;SDS011;29632;49.168;9.848;2022-08-21T08:28:00;9.33;;;5.03;;
40837;SDS011;29632;49.168;9.848;2022-08-21T08:30:26;5.80;;;4.07;;
40837;SDS011;29632;49.168;9.848;2022-08-21T08:32:51;7.20;;;3.85;;
40837;SDS011;29632;49.168;9.848;2022-08-21T08:35:17;6.78;;;3.63;;
40837;SDS011;29632;49.168;9.848;2022-08-21T08:37:43;7.22;;;4.82;;
40837;SDS011;29632;49.168;9.848;2022-08-21T08:40:12;6.75;;;4.45;;
40837;SDS011;29632;49.168;9.848;2022-08-21T08:42:48;8.35;;;4.22;;
40837;SDS011;29632;49.168;9.848;2022-08-21T08:45:16;7.15;;;4.95;;
40837;SDS011;29632;49.168;9.848;2022-08-21T08:47:52;9.05;;;5.07;;
40837;SDS011;29632;49.168;9.848;2022-08-21T08:50:48;5.97;;;3.65;;
40837;SDS011;29632;49.168;9.848;2022-08-21T08:53:33;5.85;;;4.00;;
40837;SDS011;29632;49.168;9.848;2022-08-21T08:56:13;5.90;;;4.10;;
40837;SDS011;29632;49.168;9.848;2022-08-21T08:58:41;7.25;;;4.80;;
40837;SDS011;29632;49.168;9.848;2022-08-21T09:03:44;5.40;;;3.53;;
40837;SDS011;29632;49.168;9.848;2022-08-21T09:12:04;6.28;;;4.07;;
40837;SDS011;29632;49.168;9.848;2022-08-21T09:17:59;5.57;;;3.83;;
40837;SDS011;29632;49.168;9.848;2022-08-21T09:20:52;6.72;;;3.97;;
40837;SDS011;29632;49.168;9.848;2022-08-21T09:23:44;8.32;;;3.92;;
40837;SDS011;29632;49.168;9.848;2022-08-21T09:26:31;9.65;;;3.17;;
40837;SDS011;29632;49.168;9.848;2022-08-21T09:29:39;4.83;;;3.30;;
40837;SDS011;29632;49.168;9.848;2022-08-21T09:32:18;5.63;;;3.15;;
40837;SDS011;29632;49.168;9.848;2022-08-21T09:35:08;5.45;;;3.47;;
40837;SDS011;29632;49.168;9.848;2022-08-21T09:40:33;6.47;;;3.55;;
40837;SDS011;29632;49.168;9.848;2022-08-21T09:43:20;3.65;;;2.85;;
40837;SDS011;29632;49.168;9.848;2022-08-21T09:46:00;4.10;;;2.70;;
40837;SDS011;29632;49.168;9.848;2022-08-21T09:48:47;7.38;;;3.40;;
40837;SDS011;29632;49.168;9.848;2022-08-21T09:51:20;8.13;;;3.40;;
40837;SDS011;29632;49.168;9.848;2022-08-21T09:53:56;7.47;;;3.28;;
40837;SDS011;29632;49.168;9.848;2022-08-21T09:56:57;6.28;;;2.90;;
40837;SDS011;29632;49.168;9.848;2022-08-21T09:59:53;5.13;;;2.15;;
40837;SDS011;29632;49.168;9.848;2022-08-21T10:02:29;4.50;;;2.53;;
40837;SDS011;29632;49.168;9.848;2022-08-21T10:05:06;4.15;;;1.88;;
40837;SDS011;29632;49.168;9.848;2022-08-21T10:07:42;3.58;;;1.95;;
40837;SDS011;29632;49.168;9.848;2022-08-21T10:10:18;5.47;;;2.85;;
40837;SDS011;29632;49.168;9.848;2022-08-21T10:13:05;4.40;;;2.22;;
40837;SDS011;29632;49.168;9.848;2022-08-21T10:19:00;3.17;;;2.08;;
40837;SDS011;29632;49.168;9.848;2022-08-21T10:27:55;3.80;;;1.83;;
40837;SDS011;29632;49.168;9.848;2022-08-21T10:36:09;4.75;;;2.20;;
40837;SDS011;29632;49.168;9.848;2022-08-21T10:39:18;3.22;;;1.65;;
40837;SDS011;29632;49.168;9.848;2022-08-21T10:44:59;4.00;;;2.15;;
40837;SDS011;29632;49.168;9.848;2022-08-21T10:48:02;4.13;;;2.30;;
40837;SDS011;29632;49.168;9.848;2022-08-21T10:55:55;4.10;;;2.03;;
40837;SDS011;29632;49.168;9.848;2022-08-21T10:58:31;5.13;;;2.03;;
40837;SDS011;29632;49.168;9.848;2022-08-21T11:01:12;3.05;;;1.42;;
40837;SDS011;29632;49.168;9.848;2022-08-21T11:03:46;4.53;;;1.88;;
40837;SDS011;29632;49.168;9.848;2022-08-21T11:06:25;4.95;;;1.58;;
40837;SDS011;29632;49.168;9.848;2022-08-21T11:08:57;5.32;;;1.98;;
40837;SDS011;29632;49.168;9.848;2022-08-21T11:11:36;4.57;;;2.13;;
40837;SDS011;29632;49.168;9.848;2022-08-21T11:17:07;3.92;;;1.48;;
40837;SDS011;29632;49.168;9.848;2022-08-21T11:28:08;6.15;;;2.13;;
40837;SDS011;29632;49.168;9.848;2022-08-21T11:34:02;3.22;;;1.80;;
40837;SDS011;29632;49.168;9.848;2022-08-21T11:36:41;3.70;;;1.83;;
40837;SDS011;29632;49.168;9.848;2022-08-21T11:45:23;2.75;;;1.60;;
40837;SDS011;29632;49.168;9.848;2022-08-21T11:50:45;5.60;;;2.10;;
40837;SDS011;29632;49.168;9.848;2022-08-21T11:53:15;3.33;;;1.73;;
40837;SDS011;29632;49.168;9.848;2022-08-21T11:56:21;3.30;;;2.10;;
40837;SDS011;29632;49.168;9.848;2022-08-21T11:58:55;4.15;;;1.98;;
40837;SDS011;29632;49.168;9.848;2022-08-21T12:01:48;3.95;;;1.50;;
40837;SDS011;29632;49.168;9.848;2022-08-21T12:06:55;3.63;;;1.85;;
40837;SDS011;29632;49.168;9.848;2022-08-21T12:09:34;4.00;;;1.73;;
40837;SDS011;29632;49.168;9.848;2022-08-21T12:12:06;6.30;;;2.25;;
40837;SDS011;29632;49.168;9.848;2022-08-21T12:15:11;5.13;;;2.10;;
40837;SDS011;29632;49.168;9.848;2022-08-21T12:17:58;3.92;;;1.80;;
40837;SDS011;29632;49.168;9.848;2022-08-21T12:20:35;3.63;;;1.58;;
40837;SDS011;29632;49.168;9.848;2022-08-21T12:25:39;3.30;;;1.92;;
40837;SDS011;29632;49.168;9.848;2022-08-21T12:28:25;6.43;;;2.03;;
40837;SDS011;29632;49.168;9.848;2022-08-21T12:30:52;4.53;;;1.50;;
40837;SDS011;29632;49.168;9.848;2022-08-21T12:36:06;2.97;;;1.50;;
40837;SDS011;29632;49.168;9.848;2022-08-21T12:38:47;2.72;;;1.60;;
40837;SDS011;29632;49.168;9.848;2022-08-21T12:41:20;4.32;;;1.55;;
40837;SDS011;29632;49.168;9.848;2022-08-21T12:44:00;2.55;;;1.40;;
40837;SDS011;29632;49.168;9.848;2022-08-21T12:46:34;2.75;;;1.42;;
40837;SDS011;29632;49.168;9.848;2022-08-21T12:51:55;3.08;;;1.52;;
40837;SDS011;29632;49.168;9.848;2022-08-21T12:54:31;2.08;;;1.30;;
40837;SDS011;29632;49.168;9.848;2022-08-21T12:57:05;3.30;;;1.80;;
40837;SDS011;29632;49.168;9.848;2022-08-21T12:59:32;3.17;;;1.45;;
40837;SDS011;29632;49.168;9.848;2022-08-21T13:02:05;3.95;;;1.85;;
40837;SDS011;29632;49.168;9.848;2022-08-21T13:04:43;2.78;;;1.25;;
40837;SDS011;29632;49.168;9.848;2022-08-21T13:07:13;3.47;;;1.23;;
40837;SDS011;29632;49.168;9.848;2022-08-21T13:09:50;3.42;;;1.50;;
40837;SDS011;29632;49.168;9.848;2022-08-21T13:12:23;3.38;;;1.08;;
40837;SDS011;29632;49.168;9.848;2022-08-21T13:14:50;2.53;;;1.30;;
40837;SDS011;29632;49.168;9.848;2022-08-21T13:17:20;5.15;;;1.90;;
40837;SDS011;29632;49.168;9.848;2022-08-21T13:19:59;3.57;;;1.53;;
40837;SDS011;29632;49.168;9.848;2022-08-21T13:22:30;2.65;;;1.55;;
40837;SDS011;29632;49.168;9.848;2022-08-21T13:24:56;2.95;;;1.40;;
40837;SDS011;29632;49.168;9.848;2022-08-21T13:27:26;3.42;;;1.25;;
40837;SDS011;29632;49.168;9.848;2022-08-21T13:30:28;2.50;;;1.48;;
40837;SDS011;29632;49.168;9.848;2022-08-21T13:32:48;2.08;;;1.48;;
40837;SDS011;29632;49.168;9.848;2022-08-21T13:35:44;2.80;;;1.58;;
40837;SDS011;29632;49.168;9.848;2022-08-21T13:38:20;4.43;;;1.92;;
40837;SDS011;29632;49.168;9.848;2022-08-21T13:41:33;3.60;;;1.30;;
40837;SDS011;29632;49.168;9.848;2022-08-21T13:44:01;4.00;;;1.33;;
40837;SDS011;29632;49.168;9.848;2022-08-21T13:46:39;4.20;;;1.65;;
40837;SDS011;29632;49.168;9.848;2022-08-21T13:49:05;2.95;;;1.50;;
40837;SDS011;29632;49.168;9.848;2022-08-21T13:51:33;3.72;;;1.80;;
40837;SDS011;29632;49.168;9.848;2022-08-21T13:54:01;4.28;;;2.15;;
40837;SDS011;29632;49.168;9.848;2022-08-21T13:56:44;2.47;;;1.60;;
40837;SDS011;29632;49.168;9.848;2022-08-21T13:59:11;3.05;;;1.40;;
40837;SDS011;29632;49.168;9.848;2022-08-21T14:01:52;2.63;;;1.50;;
40837;SDS011;29632;49.168;9.848;2022-08-21T14:04:42;2.58;;;1.33;;
40837;SDS011;29632;49.168;9.848;2022-08-21T14:07:21;1.95;;;1.20;;
40837;SDS011;29632;49.168;9.848;2022-08-21T14:10:00;3.25;;;1.52;;
40837;SDS011;29632;49.168;9.848;2022-08-21T14:15:33;5.22;;;1.80;;
40837;SDS011;29632;49.168;9.848;2022-08-21T14:18:16;2.95;;;1.60;;
40837;SDS011;29632;49.168;9.848;2022-08-21T14:20:44;2.53;;;1.58;;
40837;SDS011;29632;49.168;9.848;2022-08-21T14:23:10;2.90;;;1.15;;
40837;SDS011;29632;49.168;9.848;2022-08-21T14:25:42;3.08;;;1.48;;
40837;SDS011;29632;49.168;9.848;2022-08-21T14:28:26;3.38;;;1.60;;
40837;SDS011;29632;49.168;9.848;2022-08-21T14:31:13;1.98;;;1.40;;
40837;SDS011;29632;49.168;9.848;2022-08-21T14:33:43;3.00;;;1.58;;
40837;SDS011;29632;49.168;9.848;2022-08-21T14:36:09;3.05;;;1.65;;
40837;SDS011;29632;49.168;9.848;2022-08-21T14:38:37;3.55;;;1.60;;
40837;SDS011;29632;49.168;9.848;2022-08-21T14:41:11;3.83;;;2.30;;
40837;SDS011;29632;49.168;9.848;2022-08-21T14:43:48;4.40;;;1.85;;
40837;SDS011;29632;49.168;9.848;2022-08-21T14:46:23;2.90;;;1.73;;
40837;SDS011;29632;49.168;9.848;2022-08-21T14:48:52;5.28;;;1.95;;
40837;SDS011;29632;49.168;9.848;2022-08-21T14:51:18;5.53;;;2.00;;
40837;SDS011;29632;49.168;9.848;2022-08-21T14:53:44;3.38;;;1.83;;
40837;SDS011;29632;49.168;9.848;2022-08-21T14:56:11;3.72;;;2.00;;
40837;SDS011;29632;49.168;9.848;2022-08-21T14:58:42;3.28;;;2.05;;
40837;SDS011;29632;49.168;9.848;2022-08-21T15:01:13;3.13;;;1.52;;
40837;SDS011;29632;49.168;9.848;2022-08-21T15:03:43;5.68;;;2.15;;
40837;SDS011;29632;49.168;9.848;2022-08-21T15:06:10;2.67;;;1.52;;
40837;SDS011;29632;49.168;9.848;2022-08-21T15:08:36;1.80;;;1.25;;
40837;SDS011;29632;49.168;9.848;2022-08-21T15:11:03;6.22;;;2.13;;
40837;SDS011;29632;49.168;9.848;2022-08-21T15:13:30;4.32;;;1.90;;
40837;SDS011;29632;49.168;9.848;2022-08-21T15:15:57;2.88;;;1.92;;
40837;SDS011;29632;49.168;9.848;2022-08-21T15:18:24;4.35;;;1.98;;
40837;SDS011;29632;49.168;9.848;2022-08-21T15:20:53;3.92;;;1.70;;
40837;SDS011;29632;49.168;9.848;2022-08-21T15:23:19;5.57;;;2.20;;
40837;SDS011;29632;49.168;9.848;2022-08-21T15:25:46;2.80;;;1.55;;
40837;SDS011;29632;49.168;9.848;2022-08-21T15:28:14;4.00;;;1.77;;
40837;SDS011;29632;49.168;9.848;2022-08-21T15:30:42;2.80;;;1.55;;
40837;SDS011;29632;49.168;9.848;2022-08-21T15:33:09;2.55;;;1.70;;
40837;SDS011;29632;49.168;9.848;2022-08-21T15:35:36;5.10;;;1.65;;
40837;SDS011;29632;49.168;9.848;2022-08-21T15:38:02;1.92;;;1.25;;
40837;SDS011;29632;49.168;9.848;2022-08-21T15:40:28;3.85;;;1.60;;
40837;SDS011;29632;49.168;9.848;2022-08-21T15:42:59;2.90;;;1.58;;
40837;SDS011;29632;49.168;9.848;2022-08-21T15:45:28;4.25;;;2.00;;
40837;SDS011;29632;49.168;9.848;2022-08-21T15:47:54;3.15;;;2.00;;
40837;SDS011;29632;49.168;9.848;2022-08-21T15:50:22;3.42;;;1.60;;
40837;SDS011;29632;49.168;9.848;2022-08-21T15:52:49;2.83;;;1.55;;
40837;SDS011;29632;49.168;9.848;2022-08-21T15:55:15;2.22;;;1.27;;
40837;SDS011;29632;49.168;9.848;2022-08-21T15:57:42;4.32;;;1.70;;
40837;SDS011;29632;49.168;9.848;2022-08-21T16:00:16;3.20;;;1.90;;
40837;SDS011;29632;49.168;9.848;2022-08-21T16:02:48;4.88;;;1.80;;
40837;SDS011;29632;49.168;9.848;2022-08-21T16:05:18;2.78;;;1.50;;
40837;SDS011;29632;49.168;9.848;2022-08-21T16:07:46;17.05;;;15.25;;
40837;SDS011;29632;49.168;9.848;2022-08-21T16:10:13;11.93;;;10.52;;
40837;SDS011;29632;49.168;9.848;2022-08-21T16:12:47;5.68;;;4.05;;
40837;SDS011;29632;49.168;9.848;2022-08-21T16:15:19;2.88;;;2.08;;
40837;SDS011;29632;49.168;9.848;2022-08-21T16:17:45;2.35;;;1.70;;
40837;SDS011;29632;49.168;9.848;2022-08-21T16:20:14;7.72;;;2.50;;
40837;SDS011;29632;49.168;9.848;2022-08-21T16:22:49;4.30;;;2.47;;
40837;SDS011;29632;49.168;9.848;2022-08-21T16:25:16;3.33;;;1.73;;
40837;SDS011;29632;49.168;9.848;2022-08-21T16:27:43;3.00;;;1.70;;
40837;SDS011;29632;49.168;9.848;2022-08-21T16:30:13;3.53;;;1.70;;
40837;SDS011;29632;49.168;9.848;2022-08-21T16:32:40;3.33;;;1.98;;